createdAt,value
2023-03-31T00:01:09.605Z,58.10
2023-03-31T00:03:42.572Z,58.08
2023-03-31T00:06:14.446Z,58.29
2023-03-31T00:08:42.288Z,58.49
2023-03-31T00:11:11.331Z,58.64
2023-03-31T00:13:39.440Z,58.85
2023-03-31T00:16:10.291Z,59.14
2023-03-31T00:18:40.342Z,59.18
2023-03-31T00:21:18.850Z,59.17
2023-03-31T00:23:46.846Z,59.39
2023-03-31T00:26:14.446Z,59.48
2023-03-31T00:28:42.207Z,59.61
2023-03-31T00:31:10.372Z,59.80
2023-03-31T00:33:38.036Z,60.22
2023-03-31T00:36:06.433Z,60.21
2023-03-31T00:38:34.704Z,60.47
2023-03-31T00:41:04.186Z,60.65
2023-03-31T00:43:36.181Z,60.78
2023-03-31T00:46:19.216Z,61.13
2023-03-31T00:48:51.126Z,61.24
2023-03-31T00:51:22.355Z,61.50
2023-03-31T00:53:59.376Z,61.84
2023-03-31T00:56:30.282Z,61.96
2023-03-31T00:59:03.528Z,62.37
2023-03-31T01:01:31.644Z,62.47
2023-03-31T01:03:59.610Z,62.47
2023-03-31T01:06:29.552Z,62.56
2023-03-31T01:08:57.815Z,62.83
2023-03-31T01:11:30.093Z,63.09
2023-03-31T01:13:58.755Z,63.35
2023-03-31T01:16:26.476Z,63.54
2023-03-31T01:18:56.332Z,63.67
2023-03-31T01:21:53.277Z,63.80
2023-03-31T01:24:46.191Z,63.86
2023-03-31T01:27:25.081Z,63.88
2023-03-31T01:30:25.996Z,64.04
2023-03-31T01:33:07.758Z,64.11
2023-03-31T01:36:18.907Z,64.77
2023-03-31T01:39:23.965Z,65.01
2023-03-31T01:42:17.022Z,65.28
2023-03-31T01:44:55.951Z,65.25
2023-03-31T01:47:32.503Z,65.35
2023-03-31T01:50:22.337Z,65.43
2023-03-31T01:53:04.052Z,65.57
2023-03-31T01:55:48.626Z,65.55
2023-03-31T01:58:39.901Z,65.67
2023-03-31T02:01:22.104Z,65.82
2023-03-31T02:03:57.557Z,66.03
2023-03-31T02:06:28.290Z,66.14
2023-03-31T02:09:01.897Z,66.51
2023-03-31T02:11:32.178Z,66.47
2023-03-31T02:14:04.236Z,66.72
2023-03-31T02:16:37.349Z,66.78
2023-03-31T02:19:07.638Z,66.98
2023-03-31T02:21:38.867Z,67.15
2023-03-31T02:24:11.489Z,67.03
2023-03-31T02:26:50.542Z,67.24
2023-03-31T02:29:18.483Z,68.04
2023-03-31T02:32:00.880Z,68.03
2023-03-31T02:34:29.068Z,68.04
2023-03-31T02:36:57.344Z,68.21
2023-03-31T02:39:30.307Z,68.45
2023-03-31T02:41:57.976Z,68.52
2023-03-31T02:44:26.992Z,68.89
2023-03-31T02:46:56.585Z,68.93
2023-03-31T02:49:24.296Z,69.12
2023-03-31T02:52:26.155Z,69.43
2023-03-31T02:55:20.870Z,69.74
2023-03-31T02:58:18.485Z,69.91
2023-03-31T03:01:13.162Z,70.41
2023-03-31T03:03:58.634Z,71.14
2023-03-31T03:06:48.564Z,71.40
2023-03-31T03:09:47.570Z,71.66
2023-03-31T03:12:25.383Z,72.02
2023-03-31T03:15:16.745Z,72.22
2023-03-31T03:17:47.377Z,72.19
2023-03-31T03:20:17.926Z,72.12
2023-03-31T03:22:45.683Z,71.97
2023-03-31T03:25:16.753Z,71.89
2023-03-31T03:27:44.414Z,71.99
2023-03-31T03:30:13.742Z,71.74
2023-03-31T03:32:41.511Z,71.82
2023-03-31T03:35:10.206Z,71.82
2023-03-31T03:37:38.280Z,71.89
2023-03-31T03:40:08.349Z,71.94
2023-03-31T03:42:36.156Z,72.25
2023-03-31T03:45:06.810Z,72.00
2023-03-31T03:47:35.664Z,72.05
2023-03-31T03:50:04.737Z,72.26
2023-03-31T03:52:32.542Z,72.22
2023-03-31T03:55:01.390Z,72.53
2023-03-31T03:57:29.306Z,72.53
2023-03-31T03:59:57.186Z,72.98
2023-03-31T04:02:27.604Z,72.67
2023-03-31T04:04:55.087Z,72.70
2023-03-31T04:07:23.005Z,72.94
2023-03-31T04:09:50.844Z,72.93
2023-03-31T04:12:18.731Z,73.04
2023-03-31T04:14:46.599Z,73.07
2023-03-31T04:17:15.480Z,73.40
2023-03-31T04:19:43.606Z,73.67
2023-03-31T04:22:13.152Z,73.93
2023-03-31T04:24:41.139Z,73.85
2023-03-31T04:27:10.021Z,74.18
2023-03-31T04:29:37.892Z,74.67
2023-03-31T04:32:06.165Z,74.93
2023-03-31T04:34:36.646Z,75.15
2023-03-31T04:37:04.398Z,75.30
2023-03-31T04:39:32.202Z,75.38
2023-03-31T04:42:01.510Z,75.46
2023-03-31T04:44:29.519Z,75.75
2023-03-31T04:46:58.439Z,76.26
2023-03-31T04:49:26.071Z,76.18
2023-03-31T04:51:53.897Z,76.59
2023-03-31T04:54:21.391Z,76.49
2023-03-31T04:56:49.130Z,77.12
2023-03-31T04:59:16.865Z,76.94
2023-03-31T05:01:45.220Z,77.04
2023-03-31T05:04:13.321Z,77.17
2023-03-31T05:06:41.039Z,77.32
2023-03-31T05:09:10.625Z,77.47
2023-03-31T05:11:38.473Z,77.52
2023-03-31T05:14:06.085Z,77.69
2023-03-31T05:16:33.861Z,77.81
2023-03-31T05:19:01.746Z,77.96
2023-03-31T05:21:30.710Z,77.96
2023-03-31T05:23:58.801Z,78.05
2023-03-31T05:26:26.609Z,78.11
2023-03-31T05:28:54.971Z,78.24
2023-03-31T05:31:23.117Z,78.44
2023-03-31T05:33:51.411Z,78.27
2023-03-31T05:36:19.210Z,78.48
2023-03-31T05:38:47.211Z,78.57
2023-03-31T05:41:16.409Z,78.39
2023-03-31T05:43:44.147Z,78.39
2023-03-31T05:46:12.194Z,78.43
2023-03-31T05:48:40.848Z,78.32
2023-03-31T05:51:08.678Z,78.38
2023-03-31T05:53:36.532Z,78.55
2023-03-31T05:56:07.517Z,78.50
2023-03-31T05:58:36.935Z,78.59
2023-03-31T06:01:13.073Z,78.65
2023-03-31T06:03:42.107Z,78.71
2023-03-31T06:06:12.746Z,79.08
2023-03-31T06:08:41.093Z,78.68
2023-03-31T06:11:12.095Z,78.85
2023-03-31T06:13:40.207Z,78.80
2023-03-31T06:16:11.282Z,79.01
2023-03-31T06:18:39.994Z,78.93
2023-03-31T06:21:08.605Z,80.25
2023-03-31T06:23:36.408Z,80.02
2023-03-31T06:26:07.755Z,80.83
2023-03-31T06:28:36.226Z,80.49
2023-03-31T06:31:08.819Z,80.71
2023-03-31T06:33:36.966Z,80.79
2023-03-31T06:36:07.070Z,80.81
2023-03-31T06:38:37.846Z,80.95
2023-03-31T06:41:08.559Z,81.14
2023-03-31T06:43:36.468Z,81.21
2023-03-31T06:46:05.538Z,81.05
2023-03-31T06:48:33.693Z,81.57
2023-03-31T06:51:05.339Z,81.63
2023-03-31T06:53:33.323Z,81.53
2023-03-31T06:56:01.133Z,81.42
2023-03-31T06:58:31.406Z,81.46
2023-03-31T07:00:58.940Z,81.92
2023-03-31T07:03:28.621Z,81.60
2023-03-31T07:05:56.566Z,81.72
2023-03-31T07:08:24.755Z,81.89
2023-03-31T07:10:58.920Z,81.72
2023-03-31T07:13:28.054Z,81.92
2023-03-31T07:15:56.316Z,82.14
2023-03-31T07:18:29.936Z,81.76
2023-03-31T07:20:59.293Z,81.99
2023-03-31T07:23:27.304Z,81.66
2023-03-31T07:25:54.873Z,81.81
2023-03-31T07:28:22.532Z,81.71
2023-03-31T07:30:50.134Z,81.82
2023-03-31T07:33:17.791Z,81.66
2023-03-31T07:35:47.003Z,81.54
2023-03-31T07:38:15.118Z,81.53
2023-03-31T07:40:47.420Z,81.65
2023-03-31T07:43:14.866Z,81.56
2023-03-31T07:45:42.789Z,81.43
2023-03-31T07:48:10.365Z,81.40
2023-03-31T07:50:38.324Z,81.33
2023-03-31T07:53:07.965Z,81.47
2023-03-31T07:55:35.748Z,81.30
2023-03-31T07:58:03.440Z,81.46
2023-03-31T08:00:31.278Z,81.52
2023-03-31T08:02:58.839Z,81.58
2023-03-31T08:05:28.031Z,81.56
2023-03-31T08:07:55.645Z,81.63
2023-03-31T08:10:27.029Z,81.83
2023-03-31T08:12:55.677Z,81.68
2023-03-31T08:15:24.084Z,81.66
2023-03-31T08:17:52.262Z,81.68
2023-03-31T08:20:19.995Z,81.65
2023-03-31T08:22:47.772Z,81.74
2023-03-31T08:25:16.104Z,81.69
2023-03-31T08:27:44.300Z,81.79
2023-03-31T08:30:13.213Z,81.76
2023-03-31T08:32:41.036Z,81.67
2023-03-31T08:35:09.331Z,81.67
2023-03-31T08:37:39.085Z,81.67
2023-03-31T08:40:09.191Z,81.76
2023-03-31T08:42:44.904Z,81.84
2023-03-31T08:45:32.734Z,81.95
2023-03-31T08:48:21.514Z,82.11
2023-03-31T08:50:57.923Z,82.06
2023-03-31T08:53:35.798Z,82.15
2023-03-31T08:56:08.060Z,82.07
2023-03-31T08:58:43.317Z,82.12
2023-03-31T09:01:54.809Z,82.26
2023-03-31T09:04:28.163Z,82.25
2023-03-31T09:07:13.441Z,82.25
2023-03-31T09:09:55.855Z,82.36
2023-03-31T09:12:53.577Z,82.42
2023-03-31T09:15:38.821Z,82.40
2023-03-31T09:18:35.204Z,82.51
2023-03-31T09:21:14.310Z,82.41
2023-03-31T09:23:50.724Z,82.45
2023-03-31T09:26:26.952Z,82.63
2023-03-31T09:28:57.895Z,82.77
2023-03-31T09:31:25.871Z,83.00
2023-03-31T09:34:01.050Z,83.20
2023-03-31T09:36:28.881Z,83.53
2023-03-31T09:38:56.581Z,83.56
2023-03-31T09:41:24.298Z,83.67
2023-03-31T09:43:52.176Z,83.47
2023-03-31T09:46:35.634Z,83.53
2023-03-31T09:49:11.604Z,83.57
2023-03-31T09:51:45.548Z,83.77
2023-03-31T09:54:30.796Z,83.61
2023-03-31T09:56:58.739Z,83.81
2023-03-31T09:59:35.175Z,83.47
2023-03-31T10:02:09.683Z,83.62
2023-03-31T10:04:42.988Z,83.69
2023-03-31T10:07:12.324Z,83.62
2023-03-31T10:09:40.590Z,83.72
2023-03-31T10:12:15.750Z,83.76
2023-03-31T10:14:48.073Z,84.08
2023-03-31T10:17:22.747Z,83.87
2023-03-31T10:20:00.541Z,84.37
2023-03-31T10:22:31.925Z,84.31
2023-03-31T10:25:26.557Z,84.39
2023-03-31T10:27:56.696Z,84.48
2023-03-31T10:30:29.252Z,84.95
2023-03-31T10:33:00.000Z,85.02
2023-03-31T10:35:34.931Z,84.83
2023-03-31T10:38:07.004Z,84.84
2023-03-31T10:40:36.158Z,84.90
2023-03-31T10:43:15.510Z,84.86
2023-03-31T10:45:50.403Z,85.15
2023-03-31T10:48:31.578Z,85.39
2023-03-31T10:51:21.735Z,85.25
2023-03-31T10:53:55.729Z,85.12
2023-03-31T10:56:55.034Z,85.09
2023-03-31T10:59:46.704Z,84.98
2023-03-31T11:02:54.922Z,84.98
2023-03-31T11:05:45.829Z,84.87
2023-03-31T11:08:38.743Z,84.71
2023-03-31T11:11:51.321Z,84.82
2023-03-31T11:14:33.704Z,84.97
2023-03-31T11:17:12.537Z,85.01
2023-03-31T11:19:51.545Z,85.08
2023-03-31T11:22:58.925Z,84.93
2023-03-31T11:26:00.339Z,84.89
2023-03-31T11:29:12.157Z,84.79
2023-03-31T11:31:52.144Z,84.56
2023-03-31T11:35:04.635Z,84.65
2023-03-31T11:38:17.238Z,84.66
2023-03-31T11:41:01.609Z,84.77
2023-03-31T11:43:50.374Z,85.14
2023-03-31T11:46:33.272Z,85.01
2023-03-31T11:49:13.141Z,84.84
2023-03-31T11:51:49.274Z,84.89
2023-03-31T11:54:46.947Z,85.01
2023-03-31T11:57:37.771Z,85.20
2023-03-31T12:00:29.235Z,85.35
2023-03-31T12:03:30.509Z,84.92
2023-03-31T12:06:07.283Z,84.91
2023-03-31T12:09:14.475Z,84.95
2023-03-31T12:11:59.674Z,84.57
2023-03-31T12:15:06.607Z,84.44
2023-03-31T12:17:37.387Z,84.07
2023-03-31T12:20:13.848Z,83.90
2023-03-31T12:22:45.465Z,83.88
2023-03-31T12:25:21.787Z,83.97
2023-03-31T12:27:51.235Z,83.69
2023-03-31T12:30:37.114Z,83.45
2023-03-31T12:33:27.412Z,83.39
2023-03-31T12:36:22.161Z,83.15
2023-03-31T12:39:13.621Z,82.95
2023-03-31T12:42:24.126Z,82.76
2023-03-31T12:45:38.093Z,82.90
2023-03-31T12:48:29.657Z,82.74
2023-03-31T12:51:27.747Z,81.99
2023-03-31T12:54:21.220Z,81.36
2023-03-31T12:57:13.626Z,81.14
2023-03-31T12:59:46.868Z,81.80
2023-03-31T13:02:27.481Z,81.02
2023-03-31T13:04:55.989Z,80.73
2023-03-31T13:07:32.693Z,79.52
2023-03-31T13:10:18.242Z,79.54
2023-03-31T13:13:07.174Z,78.04
2023-03-31T13:15:35.964Z,78.18
2023-03-31T13:18:07.262Z,78.03
2023-03-31T13:20:40.309Z,77.60
2023-03-31T13:23:22.076Z,77.55
2023-03-31T13:25:56.440Z,77.31
2023-03-31T13:28:29.913Z,76.91
2023-03-31T13:31:08.132Z,76.97
2023-03-31T13:33:55.082Z,77.08
2023-03-31T13:36:41.275Z,76.47
2023-03-31T13:39:51.460Z,76.36
2023-03-31T13:43:09.123Z,76.38
2023-03-31T13:46:04.136Z,76.37
2023-03-31T13:48:59.250Z,76.76
2023-03-31T13:51:52.225Z,76.50
2023-03-31T13:54:45.662Z,76.20
2023-03-31T13:57:34.089Z,75.31
2023-03-31T14:00:50.672Z,74.80
2023-03-31T14:03:50.433Z,75.21
2023-03-31T14:06:53.175Z,75.56
2023-03-31T14:09:25.347Z,75.33
2023-03-31T14:11:54.222Z,74.52
2023-03-31T14:14:24.123Z,74.73
2023-03-31T14:17:03.419Z,74.49
2023-03-31T14:20:15.698Z,74.43
2023-03-31T14:23:04.450Z,74.73
2023-03-31T14:26:07.027Z,74.63
2023-03-31T14:29:15.736Z,74.58
2023-03-31T14:32:20.935Z,74.74
2023-03-31T14:35:17.119Z,74.57
2023-03-31T14:37:46.080Z,74.89
2023-03-31T14:40:17.389Z,74.89
2023-03-31T14:42:47.580Z,75.20
2023-03-31T14:45:25.622Z,75.83
2023-03-31T14:48:05.420Z,75.53
2023-03-31T14:50:36.096Z,75.35
2023-03-31T14:53:04.329Z,74.83
2023-03-31T14:55:49.782Z,74.88
2023-03-31T14:58:03.747Z,74.83
2023-03-31T15:00:34.943Z,74.59
2023-03-31T15:03:06.675Z,74.26
2023-03-31T15:05:37.853Z,74.33
2023-03-31T15:08:13.875Z,74.14
2023-03-31T15:11:02.327Z,74.19
2023-03-31T15:13:56.761Z,74.13
2023-03-31T15:16:39.996Z,74.26
2023-03-31T15:19:28.016Z,74.25
2023-03-31T15:22:04.327Z,74.36
2023-03-31T15:24:31.869Z,74.43
2023-03-31T15:27:05.269Z,74.41
2023-03-31T15:29:44.836Z,74.41
2023-03-31T15:32:27.196Z,74.51
2023-03-31T15:34:58.623Z,74.48
2023-03-31T15:37:36.801Z,74.60
2023-03-31T15:40:17.596Z,74.69
2023-03-31T15:42:55.258Z,74.66
2023-03-31T15:45:42.553Z,74.78
2023-03-31T15:48:24.784Z,75.08
2023-03-31T15:50:52.724Z,75.05
2023-03-31T15:53:31.488Z,75.05
2023-03-31T15:56:00.089Z,75.11
2023-03-31T15:58:55.004Z,75.13
2023-03-31T16:01:26.263Z,75.21
2023-03-31T16:03:55.601Z,75.23
2023-03-31T16:06:56.191Z,75.28
2023-03-31T16:09:41.260Z,75.37
2023-03-31T16:12:29.110Z,75.51
2023-03-31T16:15:13.509Z,75.63
2023-03-31T16:17:57.846Z,75.80
2023-03-31T16:20:40.193Z,75.90
2023-03-31T16:23:27.592Z,75.87
2023-03-31T16:25:55.489Z,76.03
2023-03-31T16:28:27.684Z,76.14
2023-03-31T16:30:55.466Z,76.19
2023-03-31T16:33:24.483Z,76.44
2023-03-31T16:35:55.793Z,76.52
2023-03-31T16:38:27.302Z,76.69
2023-03-31T16:41:06.151Z,76.84
2023-03-31T16:43:41.541Z,76.93
2023-03-31T16:46:14.610Z,77.11
2023-03-31T16:48:42.710Z,77.18
2023-03-31T16:51:19.770Z,77.19
2023-03-31T16:57:25.170Z,77.35
2023-03-31T16:59:53.097Z,77.50
2023-03-31T17:02:21.103Z,77.58
2023-03-31T17:04:49.570Z,77.82
2023-03-31T17:07:18.702Z,78.00
2023-03-31T17:09:47.054Z,78.18
2023-03-31T17:12:15.875Z,78.20
2023-03-31T17:14:46.954Z,78.49
2023-03-31T17:17:17.805Z,78.61
2023-03-31T17:19:45.121Z,78.65
2023-03-31T17:22:13.480Z,78.74
2023-03-31T17:24:41.904Z,78.67
2023-03-31T17:27:10.084Z,78.78
2023-03-31T17:29:38.386Z,78.92
2023-03-31T17:32:06.503Z,79.11
2023-03-31T17:34:34.872Z,79.28
2023-03-31T17:37:02.986Z,79.08
2023-03-31T17:39:31.025Z,79.26
2023-03-31T17:41:59.439Z,79.33
2023-03-31T17:44:27.915Z,79.48
2023-03-31T17:46:59.221Z,79.60
2023-03-31T17:49:27.445Z,79.78
2023-03-31T17:51:56.843Z,80.07
2023-03-31T17:54:25.134Z,80.28
2023-03-31T17:56:56.463Z,80.54
2023-03-31T17:59:24.952Z,80.56
2023-03-31T18:01:54.665Z,80.74
2023-03-31T18:04:25.397Z,80.83
2023-03-31T18:06:53.097Z,80.44
2023-03-31T18:09:21.606Z,80.65
2023-03-31T18:11:51.652Z,80.57
2023-03-31T18:14:20.094Z,80.55
2023-03-31T18:16:47.968Z,80.52
2023-03-31T18:19:19.298Z,80.55
2023-03-31T18:21:47.412Z,80.60
2023-03-31T18:24:19.589Z,80.73
2023-03-31T18:26:47.446Z,80.89
2023-03-31T18:29:15.916Z,81.05
2023-03-31T18:31:43.787Z,81.23
2023-03-31T18:34:13.141Z,81.27
2023-03-31T18:36:40.985Z,81.42
2023-03-31T18:39:08.653Z,81.46
2023-03-31T18:41:36.635Z,81.56
2023-03-31T18:44:08.022Z,81.76
2023-03-31T18:46:35.660Z,81.86
2023-03-31T18:49:03.934Z,81.88
2023-03-31T18:51:33.767Z,82.09
2023-03-31T18:54:01.800Z,82.23
2023-03-31T18:56:30.268Z,82.30
2023-03-31T18:59:02.651Z,82.51
2023-03-31T19:01:36.810Z,82.83
2023-03-31T19:04:04.853Z,83.06
2023-03-31T19:06:32.842Z,83.48
2023-03-31T19:09:00.789Z,83.97
2023-03-31T19:11:29.302Z,84.12
2023-03-31T19:13:57.140Z,84.09
2023-03-31T19:16:27.046Z,84.25
2023-03-31T19:18:57.959Z,84.55
2023-03-31T19:21:26.658Z,84.43
2023-03-31T19:23:54.461Z,84.95
2023-03-31T19:26:22.854Z,85.07
2023-03-31T19:28:50.526Z,85.92
2023-03-31T19:31:18.633Z,85.68
2023-03-31T19:33:47.178Z,85.42
2023-03-31T19:36:17.334Z,85.37
2023-03-31T19:38:45.327Z,85.31
2023-03-31T19:41:13.890Z,85.33
2023-03-31T19:43:43.772Z,85.39
2023-03-31T19:46:12.201Z,85.35
2023-03-31T19:48:40.769Z,85.56
2023-03-31T19:51:10.213Z,85.63
2023-03-31T19:53:40.248Z,85.67
2023-03-31T19:56:12.141Z,85.57
2023-03-31T19:58:41.131Z,86.05
2023-03-31T20:01:20.449Z,85.93
2023-03-31T20:03:55.552Z,85.89
2023-03-31T20:06:28.024Z,85.84
2023-03-31T20:08:59.458Z,85.77
2023-03-31T20:11:30.317Z,85.98
2023-03-31T20:13:58.941Z,85.67
2023-03-31T20:16:30.039Z,85.60
2023-03-31T20:19:03.692Z,85.58
2023-03-31T20:21:35.176Z,85.60
2023-03-31T20:24:05.069Z,85.64
2023-03-31T20:26:34.657Z,85.59
2023-03-31T20:29:03.539Z,85.65
2023-03-31T20:31:36.792Z,85.58
2023-03-31T20:34:14.546Z,85.89
2023-03-31T20:36:45.524Z,85.83
2023-03-31T20:39:14.881Z,85.83
2023-03-31T20:41:45.296Z,85.69
2023-03-31T20:44:15.224Z,85.71
2023-03-31T20:46:47.260Z,85.69
2023-03-31T20:49:15.069Z,85.71
2023-03-31T20:51:43.386Z,85.81
2023-03-31T20:54:11.524Z,85.72
2023-03-31T20:56:41.255Z,85.85
2023-03-31T20:59:14.420Z,85.93
2023-03-31T21:01:44.713Z,86.02
2023-03-31T21:04:13.526Z,86.13
2023-03-31T21:06:46.850Z,86.22
2023-03-31T21:09:16.523Z,86.31
2023-03-31T21:11:44.623Z,86.39
2023-03-31T21:14:15.383Z,86.51
2023-03-31T21:16:44.202Z,86.75
2023-03-31T21:19:12.510Z,86.85
2023-03-31T21:21:41.360Z,86.99
2023-03-31T21:24:11.992Z,86.87
2023-03-31T21:26:40.462Z,86.88
2023-03-31T21:29:08.302Z,87.04
2023-03-31T21:31:36.284Z,87.15
2023-03-31T21:34:04.121Z,87.26
2023-03-31T21:36:31.852Z,87.16
2023-03-31T21:38:59.506Z,87.14
2023-03-31T21:41:30.484Z,87.14
2023-03-31T21:44:00.886Z,87.33
2023-03-31T21:46:32.032Z,87.18
2023-03-31T21:49:00.637Z,87.29
2023-03-31T21:51:28.498Z,87.30
2023-03-31T21:53:56.920Z,87.32
2023-03-31T21:56:27.673Z,87.43
2023-03-31T21:58:56.605Z,87.41
2023-03-31T22:01:24.441Z,87.44
2023-03-31T22:03:52.864Z,87.42
2023-03-31T22:06:21.901Z,87.40
2023-03-31T22:08:50.268Z,87.45
2023-03-31T22:11:17.934Z,87.53
2023-03-31T22:13:45.847Z,87.53
2023-03-31T22:16:22.139Z,87.52
2023-03-31T22:18:52.172Z,87.47
2023-03-31T22:21:25.975Z,87.69
2023-03-31T22:23:58.267Z,87.60
2023-03-31T22:26:28.640Z,87.66
2023-03-31T22:28:57.299Z,87.69
2023-03-31T22:31:27.131Z,87.79
2023-03-31T22:33:55.284Z,87.74
2023-03-31T22:36:23.155Z,87.79
2023-03-31T22:38:51.043Z,87.76
2023-03-31T22:41:18.828Z,87.87
2023-03-31T22:43:46.673Z,87.91
2023-03-31T22:46:15.552Z,87.88
2023-03-31T22:48:43.597Z,87.86
2023-03-31T22:51:11.744Z,87.77
2023-03-31T22:53:39.425Z,87.75
2023-03-31T22:56:11.381Z,87.82
2023-03-31T22:58:39.482Z,87.89
2023-03-31T23:01:09.302Z,87.89
2023-03-31T23:03:37.363Z,87.91
2023-03-31T23:06:06.299Z,88.08
2023-03-31T23:08:36.402Z,88.27
2023-03-31T23:11:08.783Z,88.19
2023-03-31T23:13:36.711Z,88.37
2023-03-31T23:16:18.393Z,88.38
2023-03-31T23:18:47.849Z,88.45
2023-03-31T23:21:19.641Z,88.53
2023-03-31T23:23:50.931Z,88.52
2023-03-31T23:26:19.147Z,88.68
2023-03-31T23:28:48.992Z,88.56
2023-03-31T23:31:23.793Z,88.67
2023-03-31T23:33:51.627Z,88.62
2023-03-31T23:36:20.750Z,88.60
2023-03-31T23:38:51.904Z,88.68
2023-03-31T23:41:20.662Z,88.66
2023-03-31T23:43:50.266Z,88.55
2023-03-31T23:46:18.379Z,88.54
2023-03-31T23:48:45.947Z,88.46
2023-03-31T23:51:13.933Z,88.36
2023-03-31T23:53:41.507Z,88.40
2023-03-31T23:56:12.525Z,88.38
2023-03-31T23:58:42.334Z,88.38
